• Join FlightAware (Why Join?)
  • Login
  • US Flag 
02:47AM EDT


 

Airport Tracker/Info


-or-


 

Live Flight TrackerFlight Track Log ✈ SOO401 ✈ 22-Apr-2013 ✈ KMIA - SVVA / VLN

Flight Track Log - Related Links

Times and Time Zones

All times are in EDT time to prevent confusion due to time zone crossing. See the SOO401 flight status page for this flight to view local times or setup timezone preferences in your user account.

Time Position Orientation Groundspeed Altitude Reporting Facility
EDT Latitude Longitude Course Direction KTS MPH feet Rate Location/Type
04:48PM 25.7983 -80.2631 107° East 154 177 700  Level Miami Center
04:54PM 25.6770 -79.8280 103° East 362 417 11,500 1,800 Climbing FlightAware
04:55PM 25.6490 -79.7560 113° Southeast 383 441 13,000 1,740 Climbing FlightAware
04:59PM 25.3940 -79.3920 128° Southeast 424 488 19,700 2,400 Climbing FlightAware
05:00PM 25.3070 -79.2660 127° Southeast 459 528 24,800 1,200 Climbing FlightAware
05:04PM 25.0710 -78.7070 115° Southeast 490 564 26,600 1,740 Climbing FlightAware
05:05PM 24.9203 -78.4536 115° Southeast 540 621 35,000 4,620 Climbing Miami Center
05:06PM 24.8233 -78.3333 132° Southeast 540 621 36,600 1,500 Climbing Miami Center
05:07PM 24.7242 -78.2108 132° Southeast 535 616 38,000 1,080 Climbing Miami Center
05:08PM 24.6269 -78.0886 131° Southeast 530 610 38,800 480 Climbing Miami Center
05:09PM 24.5297 -77.9714 132° Southeast 525 604 39,000 60 Climbing Miami Center
05:10PM 24.4197 -77.8356 132° Southeast 531 611 39,000  Level Miami Center
05:11PM 24.3244 -77.7164 131° Southeast 531 611 39,000  Level Miami Center
05:12PM 24.2247 -77.5950 132° Southeast 531 611 39,000  Level Miami Center
05:13PM 24.1269 -77.4736 131° Southeast 531 611 39,000  Level Miami Center
05:14PM 24.0272 -77.3525 132° Southeast 531 611 39,000  Level Miami Center
05:15PM 23.9250 -77.2294 132° Southeast 531 611 39,000  Level Miami Center
05:16PM 23.8375 -77.1200 131° Southeast 531 611 39,000  Level Miami Center
05:17PM 23.7394 -76.9975 131° Southeast 536 617 39,000  Level Miami Center
05:18PM 23.6392 -76.8769 132° Southeast 536 617 39,000  Level Miami Center
05:19PM 23.5389 -76.7547 132° Southeast 536 617 39,000  Level Miami Center
05:20PM 23.4364 -76.6325 132° Southeast 543 625 39,000  Level Miami Center
05:21PM 23.3358 -76.5103 132° Southeast 543 625 39,000  Level Miami Center
05:22PM 23.2331 -76.3908 133° Southeast 543 625 39,000  Level Miami Center
05:23PM 23.1322 -76.2714 133° Southeast 543 625 39,000  Level Miami Center
05:24PM 23.0336 -76.1522 132° Southeast 538 619 39,000  Level Miami Center
05:25PM 22.9347 -76.0333 132° Southeast 538 619 39,000  Level Miami Center
05:26PM 22.8339 -75.9144 133° Southeast 538 619 39,000  Level Miami Center
05:27PM 22.7347 -75.7958 132° Southeast 538 619 39,000  Level Miami Center
05:28PM 22.6358 -75.6797 133° Southeast 538 619 39,000  Level Miami Center
05:29PM 22.5367 -75.5614 132° Southeast 538 619 39,000  Level Miami Center
05:30PM 22.4353 -75.4433 133° Southeast 538 619 39,000  Level Miami Center
05:31PM 22.3381 -75.3275 132° Southeast 538 619 39,000  Level Miami Center
05:32PM 22.2367 -75.2119 133° Southeast 533 613 39,000  Level Miami Center
05:33PM 22.1350 -75.0922 133° Southeast 533 613 39,000  Level Miami Center
05:34PM 22.0272 -74.9817 136° Southeast 533 613 39,000  Level Miami Center
05:35PM 21.9150 -74.8781 139° Southeast 533 613 39,000  Level Miami Center
05:36PM 21.8031 -74.7703 138° Southeast 533 613 39,000  Level Miami Center
05:37PM 21.6928 -74.6625 138° Southeast 538 619 39,000  Level Miami Center
05:38PM 21.5806 -74.5550 138° Southeast 538 619 39,000  Level Miami Center
05:39PM 21.4706 -74.4542 140° Southeast 538 619 39,000  Level Miami Center
05:40PM 21.3581 -74.3492 139° Southeast 533 613 39,000  Level Miami Center
05:41PM 21.2458 -74.2444 139° Southeast 533 613 39,000  Level Miami Center
05:42PM 21.1353 -74.1375 138° Southeast 533 613 39,000  Level Miami Center
05:43PM 21.0208 -74.0333 140° Southeast 538 619 39,000  Level Miami Center
05:44PM 20.9103 -73.9289 139° Southeast 538 619 39,000  Level Miami Center
05:45PM 20.7892 -73.8183 140° Southeast 538 619 39,000  Level Miami Center
05:46PM 20.6786 -73.7144 139° Southeast 532 612 39,000  Level Miami Center
05:47PM 20.5700 -73.6128 139° Southeast 527 606 39,000  Level Miami Center
05:48PM 20.4572 -73.5092 139° Southeast 532 612 39,000  Level Miami Center
05:49PM 20.3486 -73.4078 139° Southeast 532 612 39,000  Level Miami Center
05:50PM 20.2336 -73.3025 139° Southeast 532 612 39,000  Level Miami Center
05:51PM 20.1231 -73.2058 141° Southeast 532 612 39,000  Level Miami Center
05:53PM 19.9926 -73.1257 153° Southeast  Level FlightAware Approximate
06:00PM 19.1776 -72.6778 153° Southeast  Level FlightAware Approximate
06:01PM 19.0611 -72.6142 153° Southeast  Level FlightAware Approximate
06:02PM 18.9445 -72.5506 153° Southeast  Level FlightAware Approximate
06:03PM 18.8279 -72.4872 153° Southeast  Level FlightAware Approximate
06:04PM 18.7114 -72.4238 153° Southeast  Level FlightAware Approximate
06:05PM 18.5948 -72.3606 153° Southeast  Level FlightAware Approximate
06:06PM 18.4781 -72.2974 153° Southeast  Level FlightAware Approximate
06:07PM 18.3615 -72.2343 153° Southeast  Level FlightAware Approximate
06:08PM 18.2448 -72.1713 153° Southeast  Level FlightAware Approximate
06:09PM 18.1281 -72.1083 153° Southeast  Level FlightAware Approximate
06:10PM 18.0114 -72.0455 153° Southeast  Level FlightAware Approximate
06:11PM 17.8947 -71.9827 153° Southeast  Level FlightAware Approximate
06:12PM 17.7779 -71.9201 153° Southeast  Level FlightAware Approximate
06:13PM 17.6612 -71.8575 153° Southeast  Level FlightAware Approximate
06:14PM 17.5444 -71.7950 153° Southeast  Level FlightAware Approximate
06:15PM 17.4276 -71.7325 153° Southeast  Level FlightAware Approximate
06:16PM 17.3109 -71.6698 153° Southeast  Level FlightAware Approximate
06:17PM 17.1944 -71.6069 153° Southeast  Level FlightAware Approximate
06:18PM 17.0778 -71.5440 153° Southeast  Level FlightAware Approximate
06:19PM 16.9613 -71.4812 153° Southeast  Level FlightAware Approximate
06:20PM 16.8447 -71.4185 153° Southeast  Level FlightAware Approximate
06:21PM 16.7281 -71.3559 153° Southeast  Level FlightAware Approximate
06:22PM 16.6115 -71.2933 153° Southeast  Level FlightAware Approximate
06:23PM 16.4949 -71.2308 153° Southeast  Level FlightAware Approximate
06:24PM 16.3782 -71.1684 153° Southeast  Level FlightAware Approximate
06:25PM 16.2616 -71.1061 153° Southeast  Level FlightAware Approximate
06:26PM 16.1449 -71.0438 153° Southeast  Level FlightAware Approximate
06:27PM 16.0282 -70.9817 153° Southeast  Level FlightAware Approximate
06:28PM 15.9112 -70.9200 153° Southeast  Level FlightAware Approximate
06:29PM 15.7942 -70.8586 153° Southeast  Level FlightAware Approximate
06:30PM 15.6771 -70.7972 153° Southeast  Level FlightAware Approximate
06:31PM 15.5600 -70.7359 153° Southeast  Level FlightAware Approximate
06:32PM 15.4430 -70.6747 153° Southeast  Level FlightAware Approximate
06:33PM 15.3258 -70.6135 153° Southeast  Level FlightAware Approximate
06:34PM 15.2087 -70.5524 153° Southeast  Level FlightAware Approximate
06:35PM 15.0916 -70.4914 153° Southeast  Level FlightAware Approximate
06:36PM 14.9744 -70.4304 153° Southeast  Level FlightAware Approximate
06:37PM 14.8573 -70.3696 153° Southeast  Level FlightAware Approximate
06:38PM 14.7401 -70.3087 153° Southeast  Level FlightAware Approximate
06:39PM 14.6229 -70.2480 153° Southeast  Level FlightAware Approximate
06:40PM 14.5057 -70.1873 153° Southeast  Level FlightAware Approximate
06:41PM 14.3884 -70.1266 153° Southeast  Level FlightAware Approximate
06:42PM 14.2712 -70.0661 153° Southeast  Level FlightAware Approximate
06:43PM 14.1539 -70.0056 153° Southeast  Level FlightAware Approximate
06:44PM 14.0366 -69.9452 153° Southeast  Level FlightAware Approximate
06:45PM 13.9193 -69.8848 153° Southeast  Level FlightAware Approximate
06:46PM 13.8020 -69.8245 153° Southeast  Level FlightAware Approximate
06:47PM 13.6847 -69.7642 153° Southeast  Level FlightAware Approximate
06:48PM 13.5674 -69.7040 153° Southeast  Level FlightAware Approximate
06:49PM 13.4500 -69.6439 154° Southeast  Level FlightAware Approximate
06:50PM 13.3327 -69.5838 154° Southeast  Level FlightAware Approximate
06:51PM 13.2153 -69.5238 154° Southeast  Level FlightAware Approximate
06:52PM 13.0979 -69.4638 154° Southeast  Level FlightAware Approximate
06:53PM 12.9805 -69.4039 154° Southeast  Level FlightAware Approximate
06:54PM 12.8631 -69.3441 154° Southeast  Level FlightAware Approximate
06:55PM 12.7456 -69.2843 154° Southeast  Level FlightAware Approximate
06:56PM 12.6282 -69.2246 154° Southeast  Level FlightAware Approximate
06:57PM 12.5107 -69.1649 154° Southeast  Level FlightAware Approximate
06:58PM 12.3932 -69.1053 154° Southeast  Level FlightAware Approximate
06:59PM 12.2755 -69.0461 154° Southeast  Level FlightAware Approximate
07:00PM 12.1562 -68.9910 162° South  Level FlightAware Approximate
07:01PM 12.0418 -68.9269 151° Southeast  Level FlightAware Approximate
07:02PM 11.9266 -68.8629 151° Southeast  Level FlightAware Approximate
07:03PM 11.8114 -68.7989 151° Southeast  Level FlightAware Approximate
07:04PM 11.6937 -68.7440 151° Southeast  Level FlightAware Approximate
07:05PM 11.5793 -68.6786 151° Southeast  Level FlightAware Approximate
07:06PM 11.4643 -68.6143 152° Southeast  Level FlightAware Approximate
07:07PM 11.3481 -68.5523 152° Southeast  Level FlightAware Approximate
07:08PM 11.2317 -68.4908 154° Southeast  Level FlightAware Approximate
07:09PM 11.1140 -68.4319 154° Southeast  Level FlightAware Approximate
07:10PM 10.9963 -68.3731 154° Southeast  Level FlightAware Approximate
07:11PM 10.8786 -68.3143 154° Southeast  Level FlightAware Approximate
07:12PM 10.7629 -68.2516 151° Southeast  Level FlightAware Approximate
07:13PM 10.6476 -68.1881 152° Southeast  Level FlightAware Approximate
07:14PM 10.5320 -68.1250 152° Southeast  Level FlightAware Approximate
07:15PM 10.4125 -68.0704 156° South  Level FlightAware Approximate
07:16PM 10.3065 -68.0092 159° South  Level FlightAware Approximate
07:17PM 10.1910 -67.9474 144° Southeast  Level FlightAware Approximate
07:18PM 10.1500 -67.9167 144° Southeast  Level FlightAware Approximate
07:19PM 10.1497 -67.9284 144° Southeast  Level Estimated
07:20PM 10.1497 -67.9284 144° Southeast  Level Estimated
07:21PM 10.1497 -67.9284 144° Southeast  Level Estimated
07:22PM 10.1497 -67.9284 144° Southeast  Level Estimated
07:23PM 10.1497 -67.9284 144° Southeast  Level Estimated
07:24PM 10.1497 -67.9284 144° Southeast  Level Estimated
07:25PM 10.1497 -67.9284 144° Southeast  Level Estimated
07:26PM 10.1497 -67.9284 144° Southeast  Level Estimated
07:27PM 10.1497 -67.9284 144° Southeast  Level Estimated
07:28PM 10.1497 -67.9284 144° Southeast  Level Estimated
07:29PM 10.1497 -67.9284 144° Southeast  Level Estimated
07:30PM 10.1497 -67.9284 144° Southeast  Level Estimated
07:31PM 10.1497 -67.9284 144° Southeast  Level Estimated
07:32PM 10.1497 -67.9284 144° Southeast  Level Estimated
07:33PM 10.1497 -67.9284 144° Southeast  Level Estimated
07:34PM 10.1497 -67.9284 144° Southeast  Level Estimated
07:35PM 10.1497 -67.9284 144° Southeast  Level Estimated
07:36PM 10.1497 -67.9284 144° Southeast  Level Estimated